Decoded Metar for KOGD (OGDEN in UT, USA) (IATA:OGD) | Meteo·Mobile Aviation Weather
aviador You're here:

KOGD Decoded Metar

OGDEN in UT, USA
Report Time2018-08-19 13:53:00
UTC Time2018-08-19 14:06:40
Flight Rules vfr VFR
Wind160° at 06 kt
W.Decomp.*RWY 16: 5.8 kt HW 1.5 kt LCW
RWY 21: 2.6 kt HW 5.4 kt LCW
RWY 07: 1.5 kt HW 5.8 kt RCW
W.Rank160° ranks 2
Current wind is below 160° avg. (7.4)
Visibility9999 m
Phenomena:N/A
Clouds:N/A
Expected CloudBase > 5,600 ft AGL from Temp-Dew spread
CeilingNone
Temp16°C (ISA +10)
Dew Point02°C (39% RH)
AAT12.2°C
QNH1023 hPa
Density Alt5,351 ft
Elevation4,439 ft
Report Wrong Elevation
Raw Report
KOGD 191353Z 16006KT 9SM CLR 16/02 A3021 RMK AO2 SLP176
T01610022=

Extra information for KOGD:More info

Metar Taf Metar & Taf Last 4 Metars F.Rules Stats Wind Profile Meteogram Temp Stats Airport Information Weather charts Add Link Nearby VenuesMetar ALERT Operation Metar Decoded Social comments

AIRNAV info for KOGD